Time;durP1;ratioP1;P1;durP2;ratioP2;P2;SDS_P1;SDS_P2;PMS_P1;PMS_P2;Temp;Humidity;BMP_temperature;BMP_pressure;BME280_temperature;BME280_humidity;BME280_pressure;Samples;Min_cycle;Max_cycle;Signal;HPM_P1;HPM_P2
2022/06/02 00:01:45;;;;;;;0.93;0.70;;;22.10;45.30;;;;;;5093850;28;20012;-53
2022/06/02 00:04:21;;;;;;;0.80;0.60;;;22.10;45.30;;;;;;5093716;28;20004;-54
2022/06/02 00:06:48;;;;;;;0.75;0.50;;;22.10;45.30;;;;;;5092648;28;20017;-56
2022/06/02 00:09:29;;;;;;;0.50;0.50;;;22.10;45.30;;;;;;5094013;28;20020;-55
2022/06/02 00:12:00;;;;;;;0.50;0.50;;;22.10;45.30;;;;;;5092464;28;20020;-54
2022/06/02 00:14:50;;;;;;;0.88;0.60;;;22.10;45.30;;;;;;5092428;28;20043;-55
2022/06/02 00:17:48;;;;;;;0.73;0.60;;;22.10;45.40;;;;;;5092625;28;20028;-54
2022/06/02 00:20:26;;;;;;;1.00;0.50;;;22.10;45.40;;;;;;5093794;28;20087;-55
2022/06/02 00:23:30;;;;;;;2.53;0.60;;;22.10;45.40;;;;;;5093378;28;20047;-55
2022/06/02 00:26:22;;;;;;;1.25;0.60;;;22.00;45.30;;;;;;5092201;28;20027;-52
2022/06/02 00:28:58;;;;;;;1.25;0.52;;;22.10;45.40;;;;;;5092582;28;20024;-52
2022/06/02 00:31:49;;;;;;;0.65;0.50;;;22.10;45.40;;;;;;5093526;28;20030;-52
2022/06/02 00:34:24;;;;;;;0.63;0.63;;;22.10;45.40;;;;;;5074583;28;20170;-53
2022/06/02 00:37:05;;;;;;;0.43;0.40;;;22.00;45.40;;;;;;5093449;28;20080;-48
2022/06/02 00:39:31;;;;;;;;;;;22.00;45.40;;;;;;5092433;28;20099;-53
2022/06/02 00:42:12;;;;;;;0.77;0.70;;;22.10;45.40;;;;;;5091984;28;19949;-53
2022/06/02 00:44:57;;;;;;;0.50;0.50;;;22.10;46.00;;;;;;5093218;28;20046;-55
2022/06/02 00:47:43;;;;;;;0.95;0.50;;;22.00;45.90;;;;;;5093371;28;20008;-56
2022/06/02 00:50:28;;;;;;;0.70;0.55;;;22.00;45.40;;;;;;5092283;28;20091;-56
2022/06/02 00:53:30;;;;;;;0.77;0.60;;;22.10;45.50;;;;;;5093013;28;20044;-56
2022/06/02 00:59:17;;;;;;;0.57;0.50;;;22.00;45.40;;;;;;5092298;28;20154;-57
2022/06/02 01:01:43;;;;;;;0.77;0.60;;;22.00;45.40;;;;;;5092030;28;20008;-57
2022/06/02 01:04:10;;;;;;;0.63;0.55;;;22.00;45.50;;;;;;5091569;28;20752;-58
2022/06/02 01:06:41;;;;;;;0.70;0.70;;;22.00;45.50;;;;;;5091758;28;20035;-57
2022/06/02 01:09:16;;;;;;;0.93;0.50;;;22.00;45.50;;;;;;5093143;28;20020;-58
2022/06/02 01:12:01;;;;;;;0.52;0.50;;;22.00;45.50;;;;;;5092903;28;20043;-58
2022/06/02 01:14:57;;;;;;;0.50;0.50;;;22.00;45.50;;;;;;5092780;28;20032;-58
2022/06/02 01:17:50;;;;;;;0.80;0.60;;;21.90;45.50;;;;;;5091846;28;20024;-58
2022/06/02 01:20:34;;;;;;;2.70;0.70;;;22.00;45.60;;;;;;5091510;28;20016;-58
2022/06/02 01:23:26;;;;;;;0.57;0.52;;;22.00;45.60;;;;;;5091375;28;20132;-58
2022/06/02 01:26:33;;;;;;;0.85;0.65;;;22.00;45.60;;;;;;5074654;28;20043;-56
2022/06/02 01:29:05;;;;;;;0.63;0.60;;;21.90;45.50;;;;;;5091432;28;20032;-57
2022/06/02 01:31:51;;;;;;;1.45;0.70;;;22.00;45.60;;;;;;5092584;28;20020;-58
2022/06/02 01:34:30;;;;;;;0.75;0.68;;;21.90;45.60;;;;;;5092685;28;20024;-58
2022/06/02 01:37:16;;;;;;;0.68;0.50;;;21.90;45.60;;;;;;5092793;28;20056;-58
2022/06/02 01:40:20;;;;;;;0.95;0.65;;;21.90;45.60;;;;;;5091789;28;20011;-59
2022/06/02 01:43:16;;;;;;;0.60;0.50;;;22.00;45.70;;;;;;5091434;28;20501;-61
2022/06/02 01:46:09;;;;;;;0.82;0.55;;;21.90;45.60;;;;;;5078982;28;20036;-56
2022/06/02 01:48:48;;;;;;;0.68;0.55;;;21.90;45.60;;;;;;5092704;28;20020;-58
2022/06/02 01:51:21;;;;;;;0.60;0.60;;;21.90;45.60;;;;;;5094786;28;20012;-56
2022/06/02 01:54:16;;;;;;;1.23;0.60;;;21.90;45.60;;;;;;5095111;28;20028;-56
2022/06/02 01:56:52;;;;;;;0.70;0.57;;;21.90;45.70;;;;;;5087169;28;20039;-57
2022/06/02 01:59:40;;;;;;;0.68;0.63;;;21.80;45.60;;;;;;5096537;28;20096;-57
2022/06/02 02:02:17;;;;;;;1.38;0.60;;;21.90;45.70;;;;;;5096192;28;20012;-55
2022/06/02 02:05:13;;;;;;;0.57;0.55;;;21.90;45.70;;;;;;5095242;28;20065;-56
2022/06/02 02:08:07;;;;;;;0.85;0.70;;;21.80;45.70;;;;;;5095222;28;20093;-55
2022/06/02 02:10:54;;;;;;;0.82;0.50;;;21.80;45.70;;;;;;5095965;28;20023;-58
2022/06/02 02:13:50;;;;;;;1.13;0.80;;;21.80;45.70;;;;;;5096012;28;20027;-56
2022/06/02 02:16:27;;;;;;;0.77;0.70;;;21.80;45.80;;;;;;5094824;28;20115;-56
2022/06/02 02:19:18;;;;;;;1.05;0.60;;;21.80;45.80;;;;;;5094814;28;20066;-54
2022/06/02 02:22:24;;;;;;;0.73;0.60;;;21.80;45.80;;;;;;5096120;28;20036;-55
2022/06/02 02:25:06;;;;;;;1.08;0.70;;;21.80;45.80;;;;;;5095976;28;20035;-57
2022/06/02 02:28:03;;;;;;;3.58;0.70;;;21.80;45.80;;;;;;5095564;28;20051;-57
2022/06/02 02:30:43;;;;;;;0.50;0.50;;;21.80;45.80;;;;;;5095866;28;20028;-58
2022/06/02 02:33:11;;;;;;;0.60;0.60;;;21.70;45.80;;;;;;5095681;28;20048;-56
2022/06/02 02:35:58;;;;;;;1.17;0.70;;;21.80;45.80;;;;;;5095508;28;20080;-58
2022/06/02 02:38:33;;;;;;;0.90;0.70;;;21.80;45.80;;;;;;5096675;28;20047;-59
2022/06/02 02:41:04;;;;;;;0.82;0.70;;;21.80;45.80;;;;;;5095755;28;20024;-57
2022/06/02 02:43:38;;;;;;;;;;;21.70;45.80;;;;;;5094749;28;20020;-56
2022/06/02 02:46:24;;;;;;;0.63;0.63;;;21.80;45.80;;;;;;5094112;28;19904;-56
2022/06/02 02:48:52;;;;;;;0.90;0.60;;;21.70;45.80;;;;;;5095423;28;20044;-56
2022/06/02 02:51:24;;;;;;;0.60;0.60;;;21.70;45.80;;;;;;5095229;28;20016;-56
2022/06/02 02:54:09;;;;;;;0.70;0.60;;;21.70;45.90;;;;;;5095214;28;20024;-56
2022/06/02 02:56:45;;;;;;;0.55;0.55;;;21.70;45.90;;;;;;5095359;28;20085;-56
2022/06/02 02:59:22;;;;;;;0.65;0.65;;;21.70;45.90;;;;;;5093953;28;20084;-56
2022/06/02 03:02:09;;;;;;;0.80;0.80;;;21.70;45.90;;;;;;5093862;28;20024;-57
2022/06/02 03:04:50;;;;;;;0.80;0.70;;;21.70;45.90;;;;;;5095453;28;20017;-55
2022/06/02 03:07:17;;;;;;;1.40;0.90;;;21.70;45.90;;;;;;5094679;28;20016;-57
2022/06/02 03:09:44;;;;;;;0.70;0.68;;;21.70;45.90;;;;;;5094988;28;20008;-55
2022/06/02 03:12:23;;;;;;;0.70;0.70;;;21.70;45.90;;;;;;5095270;28;20027;-57
2022/06/02 03:14:59;;;;;;;0.93;0.75;;;21.70;46.00;;;;;;5079014;28;20020;-57
2022/06/02 03:17:42;;;;;;;1.58;0.80;;;21.60;45.90;;;;;;5095673;28;20069;-57
2022/06/02 03:20:13;;;;;;;1.13;0.70;;;21.70;46.00;;;;;;5095795;28;20020;-57
2022/06/02 03:22:45;;;;;;;1.95;0.90;;;21.60;45.90;;;;;;5096477;28;20036;-56
2022/06/02 03:25:29;;;;;;;0.70;0.70;;;21.60;45.90;;;;;;5097710;28;20070;-55
2022/06/02 03:28:04;;;;;;;0.73;0.68;;;21.60;45.90;;;;;;5095974;28;20440;-54
2022/06/02 03:30:53;;;;;;;1.13;0.70;;;21.60;45.90;;;;;;5096841;28;20028;-53
2022/06/02 03:33:42;;;;;;;0.90;0.70;;;21.60;45.90;;;;;;5080929;28;20024;-57
2022/06/02 03:36:52;;;;;;;0.90;0.80;;;21.60;45.90;;;;;;5074416;28;20042;-56
2022/06/02 03:39:29;;;;;;;1.00;0.65;;;21.60;46.00;;;;;;5052482;28;20043;-55
2022/06/02 03:42:10;;;;;;;1.15;0.70;;;21.60;45.90;;;;;;5052241;28;20048;-52
2022/06/02 03:44:54;;;;;;;1.58;0.85;;;21.60;46.50;;;;;;5051959;28;20025;-58
2022/06/02 03:47:29;;;;;;;0.77;0.70;;;21.60;46.00;;;;;;5051770;28;20021;-58
2022/06/02 03:50:14;;;;;;;1.00;0.80;;;21.60;46.00;;;;;;5051856;28;20067;-58
2022/06/02 03:53:18;;;;;;;1.85;0.75;;;21.60;46.50;;;;;;5035735;28;20021;-58
2022/06/02 03:55:55;;;;;;;1.83;1.00;;;21.60;46.00;;;;;;5029162;28;20029;-58
2022/06/02 03:58:37;;;;;;;1.38;1.00;;;21.60;46.00;;;;;;5051752;28;20021;-58
2022/06/02 04:01:05;;;;;;;1.10;0.90;;;21.60;46.00;;;;;;5051667;28;20021;-58
2022/06/02 04:03:53;;;;;;;0.95;0.75;;;21.60;46.00;;;;;;5051690;28;20025;-58
2022/06/02 04:06:54;;;;;;;0.75;0.70;;;21.50;46.00;;;;;;5035048;28;20021;-58
2022/06/02 04:09:43;;;;;;;1.00;0.90;;;21.50;46.00;;;;;;5048535;28;20037;-56
2022/06/02 04:15:38;;;;;;;1.48;0.80;;;21.50;46.00;;;;;;5061310;28;20058;-59
2022/06/02 04:18:10;;;;;;;0.80;0.73;;;21.50;45.90;;;;;;5077337;28;20397;-58
2022/06/02 04:21:09;;;;;;;1.10;0.85;;;21.50;45.90;;;;;;5093731;28;20082;-58
2022/06/02 04:23:56;;;;;;;0.73;0.73;;;21.50;46.00;;;;;;5093538;28;20032;-58
2022/06/02 04:26:48;;;;;;;0.82;0.77;;;21.50;46.00;;;;;;5093584;28;20027;-54
2022/06/02 04:29:42;;;;;;;0.80;0.80;;;21.50;46.00;;;;;;5092598;28;20459;-56
2022/06/02 04:32:26;;;;;;;1.10;0.70;;;21.50;46.00;;;;;;5093722;28;20024;-56
2022/06/02 04:35:25;;;;;;;1.00;0.80;;;21.50;46.00;;;;;;5093433;28;20162;-56
2022/06/02 04:38:14;;;;;;;0.70;0.65;;;21.50;46.00;;;;;;5092049;28;20016;-55
2022/06/02 04:41:17;;;;;;;1.15;0.80;;;21.50;46.00;;;;;;5093229;28;20103;-57
2022/06/02 04:44:07;;;;;;;2.95;0.80;;;21.50;46.00;;;;;;5093241;28;20016;-55
2022/06/02 04:46:41;;;;;;;0.80;0.80;;;21.50;46.00;;;;;;5077099;28;20036;-58
2022/06/02 04:49:47;;;;;;;1.40;0.90;;;21.50;46.00;;;;;;5093102;28;20023;-58
2022/06/02 04:52:37;;;;;;;0.70;0.70;;;21.50;46.00;;;;;;5090614;28;20044;-59
2022/06/02 04:55:11;;;;;;;1.50;0.82;;;21.50;46.00;;;;;;5093101;28;20042;-59
2022/06/02 04:57:51;;;;;;;0.88;0.80;;;21.50;46.00;;;;;;5093023;28;20031;-59
2022/06/02 05:00:39;;;;;;;3.13;0.98;;;21.50;46.10;;;;;;5092963;28;20024;-58
2022/06/02 05:03:44;;;;;;;1.00;0.80;;;21.50;46.10;;;;;;5092963;28;20020;-58
2022/06/02 05:06:31;;;;;;;1.38;0.98;;;21.50;46.00;;;;;;5092849;28;20036;-58
2022/06/02 05:09:26;;;;;;;0.93;0.70;;;21.50;46.00;;;;;;5075496;28;20023;-58
2022/06/02 05:12:15;;;;;;;0.88;0.82;;;21.50;46.00;;;;;;5083922;28;20063;-58
2022/06/02 05:14:50;;;;;;;1.00;0.70;;;21.50;46.00;;;;;;5093314;28;20024;-58
2022/06/02 05:17:30;;;;;;;0.93;0.73;;;21.50;46.00;;;;;;5074976;28;20523;-58
2022/06/02 05:19:59;;;;;;;0.82;0.82;;;21.50;45.90;;;;;;5093421;28;20024;-58
2022/06/02 05:23:02;;;;;;;1.20;0.80;;;21.50;45.90;;;;;;5093054;28;20028;-58
2022/06/02 05:25:29;;;;;;;1.65;0.82;;;21.50;46.00;;;;;;5095878;28;20043;-58
2022/06/02 05:28:10;;;;;;;2.95;0.80;;;21.50;45.90;;;;;;5097376;28;20024;-58
2022/06/02 05:30:47;;;;;;;1.10;0.88;;;21.50;46.00;;;;;;5097681;28;20089;-59
2022/06/02 05:33:35;;;;;;;1.85;0.98;;;21.50;46.00;;;;;;5079850;28;20027;-58
2022/06/02 05:36:08;;;;;;;1.17;1.00;;;21.50;46.00;;;;;;5095557;28;20012;-58
2022/06/02 05:38:53;;;;;;;1.35;0.82;;;21.50;46.00;;;;;;5079237;28;20020;-58
2022/06/02 05:41:34;;;;;;;3.08;0.90;;;21.50;46.00;;;;;;5097035;28;20012;-57
2022/06/02 05:44:18;;;;;;;1.95;1.00;;;21.50;46.10;;;;;;5095646;28;20016;-58
2022/06/02 05:46:57;;;;;;;1.70;1.00;;;21.50;46.00;;;;;;5097361;28;20020;-58
2022/06/02 05:49:31;;;;;;;1.00;0.90;;;21.50;45.90;;;;;;5096630;28;20719;-57
2022/06/02 05:52:25;;;;;;;0.70;0.70;;;21.60;45.90;;;;;;5096386;28;20039;-55
2022/06/02 05:55:09;;;;;;;1.55;1.10;;;21.70;45.80;;;;;;5096174;28;20016;-57
2022/06/02 05:57:43;;;;;;;1.70;1.10;;;21.70;45.70;;;;;;5094813;28;20047;-55
2022/06/02 06:00:54;;;;;;;1.27;0.88;;;21.70;45.60;;;;;;5096339;28;20039;-57
2022/06/02 06:03:48;;;;;;;0.90;0.80;;;21.80;45.50;;;;;;5094973;28;20016;-57
2022/06/02 06:06:50;;;;;;;1.48;1.08;;;21.80;45.30;;;;;;5090050;28;20035;-57
2022/06/02 06:09:30;;;;;;;1.23;0.93;;;21.90;45.30;;;;;;5094666;28;20031;-56
2022/06/02 06:12:34;;;;;;;1.33;0.93;;;21.90;45.20;;;;;;5096392;28;20031;-59
2022/06/02 06:15:10;;;;;;;2.45;0.73;;;21.90;45.10;;;;;;5096202;28;20031;-58
2022/06/02 06:17:47;;;;;;;3.03;0.98;;;22.00;45.00;;;;;;5095378;28;20060;-57
2022/06/02 06:20:36;;;;;;;1.05;0.90;;;22.00;45.50;;;;;;5094800;28;20028;-57
2022/06/02 06:23:20;;;;;;;10.90;2.05;;;22.10;44.90;;;;;;5079276;28;20518;-54
2022/06/02 06:25:54;;;;;;;11.85;2.50;;;22.10;46.50;;;;;;5094379;28;20028;-53
2022/06/02 06:28:23;;;;;;;13.60;3.35;;;22.20;47.50;;;;;;5094527;28;20055;-54
2022/06/02 06:30:57;;;;;;;11.95;4.80;;;22.40;46.80;;;;;;5094514;28;20024;-53
2022/06/02 06:33:40;;;;;;;9.60;5.88;;;22.50;48.00;;;;;;5076627;28;20008;-51
2022/06/02 06:36:38;;;;;;;18.63;5.93;;;22.50;48.50;;;;;;5075870;28;20057;-54
2022/06/02 06:39:21;;;;;;;10.68;5.78;;;22.50;49.00;;;;;;5094135;28;20024;-55
2022/06/02 06:41:53;;;;;;;9.13;6.07;;;22.50;49.80;;;;;;5076282;28;20048;-52
2022/06/02 06:44:38;;;;;;;11.57;6.53;;;22.50;48.70;;;;;;5094021;28;20038;-54
2022/06/02 06:47:13;;;;;;;15.70;6.35;;;22.50;47.60;;;;;;5076557;28;20086;-50
2022/06/02 06:50:03;;;;;;;19.52;6.15;;;22.50;47.90;;;;;;5093825;28;20092;-59
2022/06/02 06:52:59;;;;;;;11.40;5.93;;;22.60;48.50;;;;;;5093759;28;20039;-54
2022/06/02 06:55:53;;;;;;;11.88;6.05;;;22.80;48.20;;;;;;5079136;28;20051;-56
2022/06/02 06:58:41;;;;;;;14.85;6.28;;;22.70;48.40;;;;;;5094735;28;20032;-54
2022/06/02 07:01:12;;;;;;;18.02;6.57;;;22.80;48.50;;;;;;5094922;28;20075;-53
2022/06/02 07:04:09;;;;;;;13.23;6.43;;;22.90;48.50;;;;;;5094399;28;20088;-59
2022/06/02 07:06:49;;;;;;;25.98;7.18;;;22.90;47.60;;;;;;5095315;28;20016;-55
2022/06/02 07:09:24;;;;;;;15.50;6.30;;;23.00;48.00;;;;;;5076350;28;20016;-57
2022/06/02 07:15:00;;;;;;;19.85;6.30;;;23.20;48.40;;;;;;5093918;28;20481;-54
2022/06/02 07:17:48;;;;;;;19.25;5.40;;;23.10;47.40;;;;;;5058901;28;20024;-54
2022/06/02 07:20:41;;;;;;;15.15;5.50;;;22.70;46.90;;;;;;5061995;28;20106;-57
2022/06/02 07:23:18;;;;;;;21.98;5.97;;;22.80;47.30;;;;;;5079238;28;20054;-53
2022/06/02 07:25:53;;;;;;;27.70;5.45;;;22.90;47.20;;;;;;5077070;28;20023;-53
2022/06/02 07:28:27;;;;;;;31.80;6.05;;;23.00;47.50;;;;;;5093567;28;20020;-52
2022/06/02 07:31:22;;;;;;;21.17;4.93;;;23.10;47.50;;;;;;5075345;28;20020;-53
2022/06/02 07:34:06;;;;;;;17.77;4.45;;;23.10;47.30;;;;;;5061364;28;20082;-53
2022/06/02 07:36:46;;;;;;;13.75;4.28;;;23.00;46.20;;;;;;5093147;28;20031;-51
2022/06/02 07:39:45;;;;;;;11.70;4.07;;;21.90;44.40;;;;;;5076138;28;20012;-49
2022/06/02 07:42:37;;;;;;;10.38;4.40;;;22.30;46.40;;;;;;5093418;28;20099;-52
2022/06/02 07:45:12;;;;;;;14.15;3.95;;;22.40;45.80;;;;;;5058617;28;20004;-51
2022/06/02 07:48:04;;;;;;;11.38;3.88;;;22.40;45.50;;;;;;5092372;28;20016;-52
2022/06/02 07:50:35;;;;;;;13.45;3.40;;;22.50;45.30;;;;;;5093374;28;20039;-54
2022/06/02 07:53:14;;;;;;;8.77;3.15;;;22.40;45.50;;;;;;5075541;28;20027;-53
2022/06/02 07:55:46;;;;;;;6.65;3.28;;;22.40;45.80;;;;;;5093571;28;20080;-55
2022/06/02 07:58:28;;;;;;;8.27;2.88;;;22.00;44.40;;;;;;5093988;28;20111;-53
2022/06/02 08:01:18;;;;;;;5.63;3.08;;;21.70;46.40;;;;;;5092914;28;20031;-52
2022/06/02 08:04:06;;;;;;;8.68;2.78;;;21.90;46.10;;;;;;5094824;28;20062;-52
2022/06/02 08:06:52;;;;;;;8.70;3.05;;;22.10;45.60;;;;;;5094792;28;20024;-48
2022/06/02 08:10:03;;;;;;;10.88;2.90;;;22.20;45.10;;;;;;5075783;28;20451;-47
2022/06/02 08:12:35;;;;;;;5.68;2.50;;;22.20;44.70;;;;;;5004703;28;20038;-47
2022/06/02 08:15:27;;;;;;;8.82;2.40;;;22.30;44.50;;;;;;5092942;28;20012;-46
2022/06/02 08:18:07;;;;;;;7.10;2.47;;;22.30;44.40;;;;;;5045513;28;20118;-45
2022/06/02 08:21:15;;;;;;;9.00;2.40;;;22.30;44.40;;;;;;5074801;28;20027;-46
2022/06/02 08:24:15;;;;;;;8.50;2.22;;;22.30;44.30;;;;;;5092450;28;20044;-48
2022/06/02 08:26:53;;;;;;;6.97;1.87;;;22.30;44.20;;;;;;5060527;28;20016;-44
2022/06/02 08:29:31;;;;;;;3.55;1.90;;;22.30;44.00;;;;;;5093002;28;20024;-46
2022/06/02 08:32:00;;;;;;;5.57;1.90;;;22.30;44.00;;;;;;5092952;28;20077;-48
2022/06/02 08:34:45;;;;;;;6.25;2.00;;;22.20;44.00;;;;;;5092427;28;20032;-44
2022/06/02 08:37:16;;;;;;;3.60;1.40;;;22.30;43.90;;;;;;5092615;28;20103;-48
2022/06/02 08:39:49;;;;;;;8.68;1.90;;;22.20;43.80;;;;;;5092574;28;20439;-46
2022/06/02 08:42:45;;;;;;;7.93;1.88;;;22.30;43.70;;;;;;5057547;28;20541;-46
2022/06/02 08:45:50;;;;;;;3.47;1.60;;;22.30;43.60;;;;;;5074204;28;20027;-46
2022/06/02 08:48:48;;;;;;;3.60;1.70;;;22.30;43.50;;;;;;5077577;28;20454;-48
2022/06/02 08:51:45;;;;;;;5.07;1.90;;;22.20;43.40;;;;;;5085336;28;20024;-48
2022/06/02 08:54:13;;;;;;;3.45;1.92;;;22.20;43.30;;;;;;5092858;28;20096;-47
2022/06/02 08:56:57;;;;;;;7.25;1.80;;;22.30;43.40;;;;;;5092148;28;20048;-45
2022/06/02 08:59:54;;;;;;;6.97;1.90;;;22.30;43.30;;;;;;5092308;28;20058;-45
2022/06/02 09:02:34;;;;;;;3.85;1.50;;;22.30;43.20;;;;;;5093001;28;20020;-45
2022/06/02 09:05:13;;;;;;;11.30;1.70;;;22.30;43.10;;;;;;5093054;28;20540;-45
2022/06/02 09:08:10;;;;;;;2.92;1.13;;;22.30;43.10;;;;;;5092188;28;20024;-46
2022/06/02 09:10:41;;;;;;;8.95;1.90;;;22.30;43.00;;;;;;5091861;28;20517;-45
2022/06/02 09:13:47;;;;;;;20.92;2.65;;;22.40;43.00;;;;;;5073429;28;20423;-46
2022/06/02 09:16:21;;;;;;;16.45;3.00;;;22.30;43.70;;;;;;5059395;28;20027;-47
2022/06/02 09:19:22;;;;;;;22.83;3.33;;;22.60;43.60;;;;;;5092134;28;20019;-48
2022/06/02 09:22:10;;;;;;;12.55;2.92;;;22.80;43.40;;;;;;5076860;28;20051;-49
2022/06/02 09:24:58;;;;;;;7.80;3.00;;;22.90;43.20;;;;;;5091608;28;20020;-48
2022/06/02 09:27:36;;;;;;;11.88;3.45;;;22.90;42.80;;;;;;5092160;28;20020;-46
2022/06/02 09:30:07;;;;;;;14.93;3.17;;;22.90;43.50;;;;;;5074298;28;20100;-45
2022/06/02 09:36:26;;;;;;;10.10;2.78;;;22.90;42.50;;;;;;5092083;28;20081;-47
2022/06/02 09:39:04;;;;;;;10.73;3.13;;;22.90;43.40;;;;;;5091802;28;20024;-47
2022/06/02 09:42:17;;;;;;;11.13;3.22;;;23.00;43.20;;;;;;5057604;28;20464;-48
2022/06/02 09:45:10;;;;;;;5.13;2.85;;;23.00;42.80;;;;;;4989631;28;20034;-49
2022/06/02 09:47:45;;;;;;;4.57;2.72;;;22.80;42.00;;;;;;4973264;28;20034;-52
2022/06/02 09:50:16;;;;;;;8.65;2.58;;;22.90;43.30;;;;;;4989602;28;20025;-52
2022/06/02 09:53:00;;;;;;;7.65;2.58;;;23.00;43.10;;;;;;4990457;28;20022;-49
2022/06/02 09:55:36;;;;;;;9.73;3.33;;;22.90;43.10;;;;;;4990798;28;20069;-49
2022/06/02 09:58:30;;;;;;;44.13;5.90;;;23.00;43.10;;;;;;4990015;28;20093;-52
2022/06/02 10:01:05;;;;;;;20.90;4.18;;;23.10;42.80;;;;;;4969569;28;20038;-47
2022/06/02 10:03:58;;;;;;;25.35;3.53;;;23.00;42.80;;;;;;4975323;28;20055;-47
2022/06/02 10:06:51;;;;;;;10.57;2.80;;;22.90;42.50;;;;;;4974158;28;20419;-51
2022/06/02 10:09:54;;;;;;;11.77;2.67;;;22.80;42.40;;;;;;4990346;28;20077;-50
2022/06/02 10:15:34;;;;;;;11.95;2.35;;;22.60;42.10;;;;;;4993888;28;20485;-53
2022/06/02 10:18:18;;;;;;;7.53;2.25;;;22.40;41.70;;;;;;4993762;28;20035;-50
2022/06/02 10:20:56;;;;;;;12.60;2.20;;;22.40;41.50;;;;;;5055092;28;20124;-51
2022/06/02 10:23:53;;;;;;;5.53;2.40;;;22.20;42.00;;;;;;5077481;28;20036;-51
2022/06/02 10:26:38;;;;;;;4.15;1.50;;;21.70;41.10;;;;;;5062971;28;20024;-52
2022/06/02 10:29:46;;;;;;;7.28;1.88;;;21.80;41.90;;;;;;5095611;28;20020;-51
2022/06/02 10:32:48;;;;;;;4.00;1.80;;;21.60;42.00;;;;;;5091432;28;20052;-49
2022/06/02 10:35:45;;;;;;;8.98;1.70;;;21.50;42.40;;;;;;5076903;28;20146;-50
2022/06/02 10:38:39;;;;;;;6.22;1.80;;;21.80;42.00;;;;;;5094747;28;20059;-50
2022/06/02 10:41:40;;;;;;;4.63;1.40;;;21.90;41.60;;;;;;5094769;28;20074;-49
2022/06/02 10:44:07;;;;;;;2.38;1.35;;;22.10;41.20;;;;;;5093859;28;20019;-53
2022/06/02 10:47:11;;;;;;;3.65;1.30;;;22.20;40.80;;;;;;5075386;28;20019;-56
2022/06/02 10:49:57;;;;;;;8.77;1.75;;;22.20;40.60;;;;;;5079865;28;20036;-55
2022/06/02 10:52:40;;;;;;;5.75;1.17;;;22.30;40.60;;;;;;5095315;28;20094;-55
2022/06/02 10:55:27;;;;;;;3.70;1.35;;;22.30;40.50;;;;;;5095865;28;20008;-58
2022/06/02 10:57:59;;;;;;;3.13;1.08;;;22.30;40.40;;;;;;5095499;28;20487;-58
2022/06/02 11:00:41;;;;;;;7.90;1.35;;;22.40;40.40;;;;;;5077100;28;20027;-58
2022/06/02 11:03:32;;;;;;;5.55;1.38;;;22.40;40.40;;;;;;5060057;28;20069;-58
2022/06/02 11:06:31;;;;;;;3.47;1.38;;;22.40;40.30;;;;;;5094730;28;20012;-57
2022/06/02 11:09:03;;;;;;;4.65;1.33;;;22.30;40.10;;;;;;5094269;28;20489;-57
2022/06/02 11:11:38;;;;;;;3.08;1.25;;;22.40;40.20;;;;;;5076034;28;20032;-56
2022/06/02 11:14:28;;;;;;;4.50;1.20;;;22.40;40.20;;;;;;5094831;28;20012;-55
2022/06/02 11:17:28;;;;;;;1.88;1.20;;;22.40;40.10;;;;;;5079363;28;20024;-57
2022/06/02 11:20:38;;;;;;;2.17;1.20;;;22.40;40.10;;;;;;5078701;28;20396;-56
2022/06/02 11:23:19;;;;;;;7.25;1.50;;;22.40;40.20;;;;;;5066313;28;20038;-56
2022/06/02 11:26:04;;;;;;;2.45;0.90;;;22.40;40.10;;;;;;5075727;28;20040;-55
2022/06/02 11:28:47;;;;;;;1.50;0.93;;;22.40;40.00;;;;;;5075015;28;20411;-57
2022/06/02 11:31:29;;;;;;;5.20;1.13;;;22.40;40.00;;;;;;5092692;28;20015;-57
2022/06/02 11:34:16;;;;;;;3.30;1.00;;;22.40;40.00;;;;;;5093097;28;20024;-57
2022/06/02 11:37:10;;;;;;;6.07;1.15;;;22.40;40.00;;;;;;5074699;28;20035;-57
2022/06/02 11:40:08;;;;;;;3.83;1.25;;;22.40;40.00;;;;;;5092983;28;20115;-57
2022/06/02 11:43:05;;;;;;;16.45;2.40;;;22.40;40.20;;;;;;5058587;28;20522;-54
2022/06/02 11:45:49;;;;;;;15.85;2.30;;;22.30;41.80;;;;;;5093268;28;20008;-54
2022/06/02 11:48:34;;;;;;;12.90;2.85;;;22.50;41.80;;;;;;5093130;28;20043;-58
2022/06/02 11:51:18;;;;;;;16.63;2.72;;;22.40;42.30;;;;;;5093206;28;20522;-54
2022/06/02 11:53:59;;;;;;;10.55;2.10;;;22.70;42.20;;;;;;5092979;28;20099;-51
2022/06/02 11:56:40;;;;;;;9.00;1.95;;;22.80;42.30;;;;;;5093945;28;20028;-54
2022/06/02 11:59:37;;;;;;;7.57;2.20;;;22.40;42.60;;;;;;5093024;28;20012;-53
2022/06/02 12:02:21;;;;;;;6.35;2.20;;;22.40;41.10;;;;;;5075472;28;20098;-58
2022/06/02 12:05:06;;;;;;;16.98;2.30;;;22.20;41.10;;;;;;5074644;28;20103;-58
2022/06/02 12:07:51;;;;;;;17.40;2.25;;;22.40;42.20;;;;;;5092723;28;20072;-58
2022/06/02 12:10:26;;;;;;;8.70;1.95;;;22.60;41.60;;;;;;5092793;28;20487;-58
2022/06/02 12:13:08;;;;;;;10.18;2.22;;;22.70;40.60;;;;;;5092900;28;20032;-58
2022/06/02 12:15:37;;;;;;;4.13;1.98;;;22.80;40.80;;;;;;5074368;28;20095;-57
2022/06/02 12:18:26;;;;;;;4.68;1.80;;;22.70;39.30;;;;;;5092863;28;20028;-53
2022/06/02 12:21:18;;;;;;;4.05;1.58;;;22.90;40.60;;;;;;5093070;28;20016;-57
2022/06/02 12:23:56;;;;;;;18.13;2.47;;;23.00;40.40;;;;;;5059084;28;20478;-55
2022/06/02 12:26:40;;;;;;;9.20;2.05;;;23.10;40.20;;;;;;5092476;28;20435;-54
2022/06/02 12:29:36;;;;;;;9.88;2.03;;;23.20;40.30;;;;;;5074292;28;20039;-53
2022/06/02 12:32:05;;;;;;;14.73;2.28;;;23.40;40.70;;;;;;5074992;28;20487;-52
2022/06/02 12:34:43;;;;;;;13.30;2.00;;;23.40;40.50;;;;;;5092469;28;20069;-52
2022/06/02 12:37:35;;;;;;;20.45;2.92;;;23.40;40.50;;;;;;5074782;28;20466;-56
2022/06/02 12:40:10;;;;;;;14.40;1.98;;;23.30;40.50;;;;;;5074684;28;20016;-55
2022/06/02 12:43:03;;;;;;;14.95;1.70;;;23.20;40.60;;;;;;5093114;28;20044;-53
2022/06/02 12:45:49;;;;;;;8.82;1.42;;;23.20;40.60;;;;;;5092364;28;20040;-56
2022/06/02 12:48:30;;;;;;;8.68;1.40;;;23.20;40.70;;;;;;5092464;28;20008;-54
2022/06/02 12:51:23;;;;;;;7.65;1.67;;;23.10;40.70;;;;;;5092520;28;20012;-55
2022/06/02 12:54:03;;;;;;;14.45;2.00;;;23.10;40.90;;;;;;5092478;28;20070;-52
2022/06/02 12:56:57;;;;;;;9.17;1.70;;;23.10;40.80;;;;;;5092321;28;20024;-55
2022/06/02 12:59:47;;;;;;;18.27;1.95;;;23.10;40.90;;;;;;5092490;28;20138;-54
2022/06/02 13:02:44;;;;;;;9.07;1.50;;;23.10;40.90;;;;;;5074564;28;20455;-55
2022/06/02 13:05:47;;;;;;;6.47;1.50;;;23.10;40.90;;;;;;5075108;28;20356;-55
2022/06/02 13:08:31;;;;;;;8.60;1.67;;;23.10;41.00;;;;;;5058375;28;20024;-56
2022/06/02 13:11:00;;;;;;;9.30;1.88;;;23.10;40.70;;;;;;5093520;28;20035;-54
2022/06/02 13:13:31;;;;;;;7.97;1.42;;;23.10;40.90;;;;;;5093450;28;20020;-51
2022/06/02 13:16:15;;;;;;;;;;;23.10;40.70;;;;;;5058885;28;20026;-53
2022/06/02 13:19:05;;;;;;;5.20;1.42;;;23.10;40.70;;;;;;5074974;28;20375;-56
2022/06/02 13:21:50;;;;;;;11.23;1.80;;;23.10;40.60;;;;;;5077793;28;20036;-55
2022/06/02 13:24:44;;;;;;;4.25;1.35;;;23.10;40.80;;;;;;5093288;28;20020;-56
2022/06/02 13:27:32;;;;;;;10.32;1.42;;;23.10;40.90;;;;;;5075432;28;20027;-56
2022/06/02 13:30:19;;;;;;;7.00;1.63;;;23.20;40.90;;;;;;5095080;28;20099;-54
2022/06/02 13:33:06;;;;;;;7.10;1.67;;;23.20;40.90;;;;;;5095717;28;20095;-53
2022/06/02 13:35:56;;;;;;;6.05;1.10;;;23.20;40.70;;;;;;5095659;28;20073;-55
2022/06/02 13:38:42;;;;;;;3.97;0.93;;;23.20;40.70;;;;;;5095923;28;20024;-53
2022/06/02 13:41:29;;;;;;;5.15;1.55;;;23.20;40.60;;;;;;5096055;28;20020;-54
2022/06/02 13:44:12;;;;;;;4.68;1.20;;;23.30;40.60;;;;;;5076660;28;20471;-56
2022/06/02 13:46:59;;;;;;;3.40;1.02;;;23.40;40.60;;;;;;5081375;28;20020;-53
2022/06/02 13:49:42;;;;;;;4.55;1.10;;;23.40;40.50;;;;;;5100008;28;20374;-53
2022/06/02 13:52:24;;;;;;;4.70;1.00;;;23.40;40.40;;;;;;5099540;28;20012;-50
2022/06/02 13:58:01;;;;;;;4.38;1.38;;;23.50;40.00;;;;;;5097358;28;20075;-55
2022/06/02 14:00:39;;;;;;;4.75;1.45;;;23.60;40.20;;;;;;5097268;28;20082;-49
2022/06/02 14:03:11;;;;;;;7.15;1.33;;;23.60;39.90;;;;;;5097067;28;20012;-54
2022/06/02 14:05:47;;;;;;;4.35;1.00;;;23.70;39.80;;;;;;5097126;28;20054;-54
2022/06/02 14:08:31;;;;;;;4.75;1.35;;;23.80;39.60;;;;;;5098277;28;20020;-56
2022/06/02 14:11:17;;;;;;;4.78;1.10;;;23.80;39.50;;;;;;5097955;28;20020;-57
2022/06/02 14:14:10;;;;;;;3.17;1.05;;;23.90;39.50;;;;;;5097646;28;20012;-56
2022/06/02 14:17:07;;;;;;;4.30;1.85;;;24.00;39.40;;;;;;5078956;28;20024;-54
2022/06/02 14:20:06;;;;;;;5.50;1.27;;;24.00;39.40;;;;;;5096466;28;20016;-57
2022/06/02 14:22:47;;;;;;;5.38;1.33;;;24.00;39.20;;;;;;5096498;28;20032;-57
2022/06/02 14:25:46;;;;;;;3.55;0.98;;;24.00;39.30;;;;;;5080317;28;20088;-56
2022/06/02 14:28:59;;;;;;;3.83;1.35;;;24.00;39.30;;;;;;5045580;28;20032;-51
2022/06/02 14:31:30;;;;;;;4.32;1.30;;;24.10;39.20;;;;;;4994956;28;20033;-52
2022/06/02 14:34:03;;;;;;;5.78;0.93;;;24.10;39.20;;;;;;4995206;28;20022;-53
2022/06/02 14:36:54;;;;;;;4.70;1.25;;;24.00;39.30;;;;;;4995211;28;20501;-55